AFR78RT LFPG-LFLL
Flight info
| Callsign | AFR78RT |
|---|---|
| Flight time | 0h 47m |
| Altitude | 27000 |
| Route | OKASI DCT OKEKO DCT OKEPI DCT MOU |
| Aircraft | A320/M-SDE2E3FGIJ1RWY/HB1 |
Departure
| Time | 2026-05-08 16:30 |
|---|---|
| Airport | Charles de Gaulle International Airport (LFPG) |
Arrival
| Time | 2026-05-08 17:17 |
|---|---|
| Airport | Lyon Saint-Exupéry Airport (LFLL) |
| Time | Latitude | Longitude | Altitude | Speed | Heading |
|---|---|---|---|---|---|
| 2026-05-08 15:59 | 49.00651 | 2.57327 | 360 ft | 0 kts | 99° |
| 2026-05-08 16:19 | 49.00652 | 2.57316 | 354 ft | 3 kts | 99° |
| 2026-05-08 16:19 | 49.00656 | 2.57282 | 359 ft | 3 kts | 101° |
| 2026-05-08 16:19 | 49.00661 | 2.57247 | 361 ft | 3 kts | 102° |
| 2026-05-08 16:20 | 49.00666 | 2.57212 | 362 ft | 3 kts | 101° |
| 2026-05-08 16:20 | 49.00669 | 2.57177 | 360 ft | 3 kts | 91° |
| 2026-05-08 16:20 | 49.00668 | 2.57150 | 360 ft | 0 kts | 72° |
| 2026-05-08 16:23 | 49.00668 | 2.57151 | 360 ft | 1 kts | 72° |
| 2026-05-08 16:23 | 49.00686 | 2.57217 | 357 ft | 10 kts | 47° |
| 2026-05-08 16:23 | 49.00760 | 2.57222 | 354 ft | 12 kts | 355° |
| 2026-05-08 16:23 | 49.00841 | 2.57201 | 360 ft | 12 kts | 326° |
| 2026-05-08 16:24 | 49.00853 | 2.57095 | 354 ft | 11 kts | 265° |
| 2026-05-08 16:24 | 49.00842 | 2.56892 | 354 ft | 27 kts | 265° |
| 2026-05-08 16:24 | 49.00827 | 2.56594 | 354 ft | 28 kts | 265° |
| 2026-05-08 16:24 | 49.00801 | 2.56298 | 354 ft | 29 kts | 260° |
| 2026-05-08 16:25 | 49.00773 | 2.55992 | 354 ft | 27 kts | 262° |
| 2026-05-08 16:25 | 49.00754 | 2.55769 | 354 ft | 20 kts | 262° |
| 2026-05-08 16:25 | 49.00737 | 2.55575 | 363 ft | 17 kts | 262° |
| 2026-05-08 16:25 | 49.00721 | 2.55403 | 360 ft | 15 kts | 257° |
| 2026-05-08 16:26 | 49.00681 | 2.55266 | 356 ft | 13 kts | 223° |
| 2026-05-08 16:26 | 49.00601 | 2.55262 | 357 ft | 11 kts | 163° |
| 2026-05-08 16:26 | 49.00523 | 2.55299 | 361 ft | 14 kts | 163° |
| 2026-05-08 16:26 | 49.00409 | 2.55346 | 354 ft | 21 kts | 164° |
| 2026-05-08 16:27 | 49.00266 | 2.55410 | 358 ft | 22 kts | 163° |
| 2026-05-08 16:27 | 49.00114 | 2.55477 | 357 ft | 23 kts | 165° |
| 2026-05-08 16:27 | 48.99988 | 2.55525 | 361 ft | 15 kts | 162° |
| 2026-05-08 16:27 | 48.99900 | 2.55588 | 354 ft | 13 kts | 144° |
| 2026-05-08 16:28 | 48.99846 | 2.55689 | 357 ft | 13 kts | 112° |
| 2026-05-08 16:28 | 48.99796 | 2.55790 | 357 ft | 11 kts | 162° |
| 2026-05-08 16:28 | 48.99724 | 2.55808 | 354 ft | 10 kts | 176° |
| 2026-05-08 16:28 | 48.99661 | 2.55817 | 357 ft | 9 kts | 174° |
| 2026-05-08 16:29 | 48.99602 | 2.55861 | 353 ft | 9 kts | 104° |
| 2026-05-08 16:29 | 48.99602 | 2.55890 | 353 ft | 0 kts | 87° |
| 2026-05-08 16:29 | 48.99616 | 2.56172 | 360 ft | 62 kts | 85° |
| 2026-05-08 16:29 | 48.99669 | 2.57149 | 352 ft | 121 kts | 85° |
| 2026-05-08 16:30 | 48.99753 | 2.58683 | 392 ft | 163 kts | 84° |
| 2026-05-08 16:30 | 48.99850 | 2.60390 | 1042 ft | 162 kts | 84° |
| 2026-05-08 16:30 | 48.99925 | 2.61937 | 1696 ft | 160 kts | 85° |
| 2026-05-08 16:30 | 49.00008 | 2.63630 | 2310 ft | 161 kts | 84° |
| 2026-05-08 16:31 | 49.00098 | 2.65343 | 2845 ft | 167 kts | 85° |
| 2026-05-08 16:31 | 49.00162 | 2.66565 | 3046 ft | 182 kts | 85° |
| 2026-05-08 16:31 | 49.00269 | 2.68607 | 3314 ft | 205 kts | 85° |
| 2026-05-08 16:31 | 49.00392 | 2.70891 | 3580 ft | 229 kts | 85° |
| 2026-05-08 16:32 | 49.00527 | 2.73439 | 3944 ft | 253 kts | 85° |
| 2026-05-08 16:32 | 49.00670 | 2.76171 | 4620 ft | 263 kts | 85° |
| 2026-05-08 16:32 | 49.00656 | 2.78975 | 5417 ft | 268 kts | 97° |
| 2026-05-08 16:32 | 49.00367 | 2.81796 | 6262 ft | 272 kts | 104° |
| 2026-05-08 16:33 | 48.99579 | 2.84412 | 7038 ft | 275 kts | 127° |
| 2026-05-08 16:33 | 48.98156 | 2.86353 | 7799 ft | 278 kts | 153° |
| 2026-05-08 16:33 | 48.96312 | 2.87183 | 8577 ft | 279 kts | 179° |
| 2026-05-08 16:33 | 48.94371 | 2.87041 | 9392 ft | 281 kts | 186° |
| 2026-05-08 16:34 | 48.92415 | 2.86814 | 10210 ft | 283 kts | 186° |
| 2026-05-08 16:34 | 48.90383 | 2.86577 | 10522 ft | 304 kts | 186° |
| 2026-05-08 16:34 | 48.88213 | 2.86328 | 10951 ft | 318 kts | 186° |
| 2026-05-08 16:34 | 48.85988 | 2.86078 | 11616 ft | 323 kts | 186° |
| 2026-05-08 16:35 | 48.83731 | 2.85828 | 12321 ft | 327 kts | 186° |
| 2026-05-08 16:35 | 48.81450 | 2.85584 | 13034 ft | 331 kts | 186° |
| 2026-05-08 16:35 | 48.79141 | 2.85337 | 13738 ft | 334 kts | 186° |
| 2026-05-08 16:35 | 48.76812 | 2.85088 | 14360 ft | 338 kts | 186° |
| 2026-05-08 16:36 | 48.74452 | 2.84836 | 14979 ft | 341 kts | 186° |
| 2026-05-08 16:36 | 48.72075 | 2.84582 | 15594 ft | 344 kts | 186° |
| 2026-05-08 16:36 | 48.69673 | 2.84322 | 16197 ft | 348 kts | 186° |
| 2026-05-08 16:36 | 48.67247 | 2.84060 | 16803 ft | 351 kts | 186° |
| 2026-05-08 16:37 | 48.64800 | 2.83795 | 17402 ft | 354 kts | 186° |
| 2026-05-08 16:37 | 48.62331 | 2.83527 | 17997 ft | 358 kts | 186° |
| 2026-05-08 16:37 | 48.59838 | 2.83258 | 18553 ft | 361 kts | 187° |
| 2026-05-08 16:37 | 48.57317 | 2.82992 | 19034 ft | 365 kts | 187° |
| 2026-05-08 16:38 | 48.54768 | 2.82722 | 19496 ft | 370 kts | 187° |
| 2026-05-08 16:38 | 48.52185 | 2.82447 | 19953 ft | 375 kts | 187° |
| 2026-05-08 16:38 | 48.49567 | 2.82164 | 20414 ft | 379 kts | 188° |
| 2026-05-08 16:38 | 48.46917 | 2.81872 | 20868 ft | 384 kts | 188° |
| 2026-05-08 16:39 | 48.44235 | 2.81579 | 21320 ft | 389 kts | 188° |
| 2026-05-08 16:39 | 48.41518 | 2.81286 | 21769 ft | 394 kts | 188° |
| 2026-05-08 16:39 | 48.38768 | 2.80991 | 22186 ft | 399 kts | 189° |
| 2026-05-08 16:39 | 48.35982 | 2.80694 | 22613 ft | 404 kts | 189° |
| 2026-05-08 16:40 | 48.33161 | 2.80395 | 23044 ft | 409 kts | 189° |
| 2026-05-08 16:40 | 48.30309 | 2.80093 | 23486 ft | 414 kts | 189° |
| 2026-05-08 16:40 | 48.27421 | 2.79787 | 23867 ft | 418 kts | 189° |
| 2026-05-08 16:40 | 48.24511 | 2.79478 | 24265 ft | 421 kts | 189° |
| 2026-05-08 16:41 | 48.21582 | 2.79172 | 24667 ft | 423 kts | 189° |
| 2026-05-08 16:41 | 48.18636 | 2.78867 | 25050 ft | 425 kts | 189° |
| 2026-05-08 16:41 | 48.15681 | 2.78562 | 25479 ft | 426 kts | 189° |
| 2026-05-08 16:42 | 48.09720 | 2.78283 | 26260 ft | 435 kts | 179° |
| 2026-05-08 16:42 | 48.06709 | 2.79065 | 26550 ft | 445 kts | 168° |
| 2026-05-08 16:42 | 48.03757 | 2.80650 | 26747 ft | 455 kts | 160° |
| 2026-05-08 16:42 | 48.00840 | 2.82538 | 26954 ft | 458 kts | 160° |
| 2026-05-08 16:43 | 47.97943 | 2.84405 | 27005 ft | 446 kts | 160° |
| 2026-05-08 16:43 | 47.95123 | 2.86214 | 27007 ft | 438 kts | 160° |
| 2026-05-08 16:43 | 47.92337 | 2.87988 | 27007 ft | 434 kts | 160° |
| 2026-05-08 16:43 | 47.89555 | 2.89746 | 27008 ft | 433 kts | 160° |
| 2026-05-08 16:44 | 47.86780 | 2.91492 | 27007 ft | 433 kts | 160° |
| 2026-05-08 16:44 | 47.84004 | 2.93237 | 27002 ft | 433 kts | 160° |
| 2026-05-08 16:44 | 47.81231 | 2.94983 | 27002 ft | 433 kts | 160° |
| 2026-05-08 16:44 | 47.78452 | 2.96736 | 27002 ft | 435 kts | 160° |
| 2026-05-08 16:45 | 47.75663 | 2.98496 | 26980 ft | 436 kts | 160° |
| 2026-05-08 16:45 | 47.72879 | 3.00254 | 26991 ft | 434 kts | 160° |
| 2026-05-08 16:45 | 47.70101 | 3.02005 | 26992 ft | 434 kts | 160° |
| 2026-05-08 16:45 | 47.67322 | 3.03749 | 26990 ft | 433 kts | 160° |
| 2026-05-08 16:46 | 47.64549 | 3.05485 | 26990 ft | 433 kts | 160° |
| 2026-05-08 16:46 | 47.61773 | 3.07223 | 26989 ft | 433 kts | 160° |
| 2026-05-08 16:46 | 47.58998 | 3.08954 | 26985 ft | 433 kts | 160° |
| 2026-05-08 16:46 | 47.56226 | 3.10682 | 26984 ft | 433 kts | 160° |
| 2026-05-08 16:47 | 47.53453 | 3.12410 | 26977 ft | 432 kts | 160° |
| 2026-05-08 16:47 | 47.50684 | 3.14139 | 26980 ft | 432 kts | 160° |
| 2026-05-08 16:47 | 47.47914 | 3.15871 | 26983 ft | 432 kts | 160° |
| 2026-05-08 16:47 | 47.45187 | 3.17568 | 26983 ft | 431 kts | 160° |
| 2026-05-08 16:48 | 47.42424 | 3.19280 | 26981 ft | 431 kts | 160° |
| 2026-05-08 16:48 | 47.39623 | 3.21011 | 26980 ft | 431 kts | 160° |
| 2026-05-08 16:48 | 47.36898 | 3.22694 | 26980 ft | 430 kts | 160° |
| 2026-05-08 16:48 | 47.34097 | 3.24426 | 26979 ft | 430 kts | 160° |
| 2026-05-08 16:49 | 47.31338 | 3.26135 | 26966 ft | 430 kts | 160° |
| 2026-05-08 16:49 | 47.28622 | 3.27819 | 26973 ft | 429 kts | 160° |
| 2026-05-08 16:49 | 47.25872 | 3.29520 | 26977 ft | 429 kts | 160° |
| 2026-05-08 16:49 | 47.23084 | 3.31237 | 26977 ft | 428 kts | 160° |
| 2026-05-08 16:50 | 47.20333 | 3.32929 | 26971 ft | 429 kts | 160° |
| 2026-05-08 16:50 | 47.17618 | 3.34596 | 26968 ft | 429 kts | 160° |
| 2026-05-08 16:50 | 47.14865 | 3.36288 | 26963 ft | 429 kts | 160° |
| 2026-05-08 16:50 | 47.12111 | 3.37980 | 26954 ft | 429 kts | 160° |
| 2026-05-08 16:51 | 47.09356 | 3.39670 | 26952 ft | 429 kts | 160° |
| 2026-05-08 16:51 | 47.06604 | 3.41359 | 26953 ft | 429 kts | 160° |
| 2026-05-08 16:51 | 47.03851 | 3.43045 | 26955 ft | 429 kts | 160° |
| 2026-05-08 16:51 | 47.01096 | 3.44726 | 26959 ft | 429 kts | 160° |
| 2026-05-08 16:52 | 46.98339 | 3.46402 | 26958 ft | 429 kts | 160° |
| 2026-05-08 16:52 | 46.95583 | 3.48076 | 26960 ft | 429 kts | 160° |
| 2026-05-08 16:52 | 46.92829 | 3.49747 | 26960 ft | 429 kts | 160° |
| 2026-05-08 16:52 | 46.90077 | 3.51418 | 26949 ft | 428 kts | 160° |
| 2026-05-08 16:53 | 46.84598 | 3.54747 | 26980 ft | 425 kts | 160° |
| 2026-05-08 16:53 | 46.81871 | 3.56401 | 26924 ft | 422 kts | 160° |
| 2026-05-08 16:53 | 46.79188 | 3.58029 | 26663 ft | 413 kts | 160° |
| 2026-05-08 16:54 | 46.76561 | 3.59623 | 26423 ft | 405 kts | 160° |
| 2026-05-08 16:54 | 46.73979 | 3.61187 | 26043 ft | 400 kts | 160° |
| 2026-05-08 16:54 | 46.71417 | 3.62734 | 25598 ft | 398 kts | 160° |
| 2026-05-08 16:54 | 46.68863 | 3.64254 | 25151 ft | 395 kts | 160° |
| 2026-05-08 16:55 | 46.66312 | 3.65707 | 24693 ft | 393 kts | 161° |
| 2026-05-08 16:55 | 46.63758 | 3.67117 | 24234 ft | 392 kts | 161° |
| 2026-05-08 16:55 | 46.61213 | 3.68504 | 23765 ft | 390 kts | 161° |
| 2026-05-08 16:55 | 46.58669 | 3.69891 | 23234 ft | 390 kts | 161° |
| 2026-05-08 16:56 | 46.56138 | 3.71280 | 22741 ft | 387 kts | 161° |
| 2026-05-08 16:56 | 46.53627 | 3.72672 | 22264 ft | 385 kts | 161° |
| 2026-05-08 16:56 | 46.51133 | 3.74056 | 21780 ft | 383 kts | 161° |
| 2026-05-08 16:56 | 46.48654 | 3.75433 | 21306 ft | 380 kts | 161° |
| 2026-05-08 16:57 | 46.46188 | 3.76804 | 20823 ft | 378 kts | 161° |
| 2026-05-08 16:57 | 46.43742 | 3.78159 | 20361 ft | 374 kts | 161° |
| 2026-05-08 16:57 | 46.41335 | 3.79488 | 19901 ft | 367 kts | 161° |
| 2026-05-08 16:57 | 46.38972 | 3.80803 | 19450 ft | 361 kts | 159° |
| 2026-05-08 16:58 | 46.36793 | 3.82556 | 19012 ft | 358 kts | 147° |
| 2026-05-08 16:58 | 46.34963 | 3.84967 | 18690 ft | 355 kts | 134° |
| 2026-05-08 16:58 | 46.33457 | 3.87773 | 18404 ft | 350 kts | 130° |
| 2026-05-08 16:58 | 46.31990 | 3.90558 | 18088 ft | 345 kts | 131° |
| 2026-05-08 16:59 | 46.30540 | 3.93299 | 17799 ft | 341 kts | 131° |
| 2026-05-08 16:59 | 46.29104 | 3.96005 | 17512 ft | 338 kts | 130° |
| 2026-05-08 16:59 | 46.27678 | 3.98687 | 17235 ft | 335 kts | 130° |
| 2026-05-08 16:59 | 46.26255 | 4.01357 | 16952 ft | 335 kts | 130° |
| 2026-05-08 17:00 | 46.24834 | 4.04021 | 16674 ft | 334 kts | 130° |
| 2026-05-08 17:00 | 46.23420 | 4.06675 | 16407 ft | 333 kts | 130° |
| 2026-05-08 17:00 | 46.22012 | 4.09316 | 16120 ft | 331 kts | 130° |
| 2026-05-08 17:00 | 46.20609 | 4.11942 | 15846 ft | 329 kts | 130° |
| 2026-05-08 17:01 | 46.19212 | 4.14553 | 15571 ft | 328 kts | 130° |
| 2026-05-08 17:01 | 46.17821 | 4.17153 | 15299 ft | 326 kts | 130° |
| 2026-05-08 17:01 | 46.16436 | 4.19738 | 15028 ft | 325 kts | 130° |
| 2026-05-08 17:01 | 46.15055 | 4.22311 | 14758 ft | 323 kts | 130° |
| 2026-05-08 17:02 | 46.13682 | 4.24870 | 14486 ft | 322 kts | 130° |
| 2026-05-08 17:02 | 46.12315 | 4.27418 | 14218 ft | 321 kts | 130° |
| 2026-05-08 17:02 | 46.10956 | 4.29954 | 13954 ft | 319 kts | 130° |
| 2026-05-08 17:02 | 46.09601 | 4.32480 | 13677 ft | 318 kts | 130° |
| 2026-05-08 17:03 | 46.08252 | 4.34988 | 13392 ft | 316 kts | 130° |
| 2026-05-08 17:03 | 46.06908 | 4.37482 | 13127 ft | 314 kts | 130° |
| 2026-05-08 17:03 | 46.05572 | 4.39959 | 12871 ft | 312 kts | 130° |
| 2026-05-08 17:03 | 46.04241 | 4.42425 | 12611 ft | 311 kts | 130° |
| 2026-05-08 17:04 | 46.02918 | 4.44878 | 12353 ft | 310 kts | 130° |
| 2026-05-08 17:04 | 46.01598 | 4.47322 | 12094 ft | 309 kts | 130° |
| 2026-05-08 17:04 | 46.00283 | 4.49754 | 11838 ft | 307 kts | 129° |
| 2026-05-08 17:04 | 45.99114 | 4.52326 | 11576 ft | 307 kts | 123° |
| 2026-05-08 17:05 | 45.97997 | 4.54929 | 11314 ft | 305 kts | 123° |
| 2026-05-08 17:05 | 45.96881 | 4.57524 | 11065 ft | 304 kts | 124° |
| 2026-05-08 17:05 | 45.95560 | 4.59862 | 10808 ft | 300 kts | 138° |
| 2026-05-08 17:05 | 45.93904 | 4.61649 | 10555 ft | 297 kts | 152° |
| 2026-05-08 17:06 | 45.92066 | 4.62965 | 10331 ft | 293 kts | 155° |
| 2026-05-08 17:06 | 45.90254 | 4.64233 | 10064 ft | 288 kts | 155° |
| 2026-05-08 17:06 | 45.88468 | 4.65485 | 9829 ft | 284 kts | 155° |
| 2026-05-08 17:06 | 45.86699 | 4.66724 | 9570 ft | 282 kts | 155° |
| 2026-05-08 17:07 | 45.84939 | 4.67955 | 9333 ft | 281 kts | 155° |
| 2026-05-08 17:07 | 45.83188 | 4.69179 | 9122 ft | 279 kts | 155° |
| 2026-05-08 17:07 | 45.81444 | 4.70399 | 8894 ft | 279 kts | 155° |
| 2026-05-08 17:07 | 45.79704 | 4.71617 | 8664 ft | 278 kts | 155° |
| 2026-05-08 17:08 | 45.77970 | 4.72828 | 8426 ft | 276 kts | 155° |
| 2026-05-08 17:08 | 45.76247 | 4.74031 | 8200 ft | 275 kts | 155° |
| 2026-05-08 17:08 | 45.74531 | 4.75230 | 7972 ft | 274 kts | 155° |
| 2026-05-08 17:08 | 45.72823 | 4.76425 | 7739 ft | 273 kts | 155° |
| 2026-05-08 17:09 | 45.71123 | 4.77613 | 7514 ft | 271 kts | 155° |
| 2026-05-08 17:09 | 45.69427 | 4.78799 | 7288 ft | 271 kts | 155° |
| 2026-05-08 17:09 | 45.67735 | 4.79979 | 7059 ft | 270 kts | 155° |
| 2026-05-08 17:09 | 45.66054 | 4.81150 | 6839 ft | 267 kts | 156° |
| 2026-05-08 17:10 | 45.64385 | 4.82308 | 6605 ft | 266 kts | 156° |
| 2026-05-08 17:10 | 45.62721 | 4.83463 | 6384 ft | 265 kts | 156° |
| 2026-05-08 17:10 | 45.61069 | 4.84614 | 6163 ft | 264 kts | 155° |
| 2026-05-08 17:10 | 45.59544 | 4.86076 | 5941 ft | 266 kts | 140° |
| 2026-05-08 17:11 | 45.58345 | 4.88091 | 5705 ft | 268 kts | 125° |
| 2026-05-08 17:11 | 45.57382 | 4.90358 | 5481 ft | 267 kts | 124° |
| 2026-05-08 17:11 | 45.56421 | 4.92612 | 5258 ft | 265 kts | 124° |
| 2026-05-08 17:11 | 45.55475 | 4.94825 | 5087 ft | 255 kts | 124° |
| 2026-05-08 17:12 | 45.54573 | 4.96935 | 4956 ft | 243 kts | 124° |
| 2026-05-08 17:12 | 45.53721 | 4.98921 | 4836 ft | 232 kts | 124° |
| 2026-05-08 17:12 | 45.52925 | 5.00885 | 4614 ft | 228 kts | 117° |
| 2026-05-08 17:12 | 45.52517 | 5.03107 | 4298 ft | 232 kts | 97° |
| 2026-05-08 17:13 | 45.52582 | 5.05370 | 4046 ft | 230 kts | 88° |
| 2026-05-08 17:13 | 45.52725 | 5.07635 | 3815 ft | 224 kts | 88° |
| 2026-05-08 17:13 | 45.52858 | 5.09089 | 3650 ft | 224 kts | 78° |
| 2026-05-08 17:13 | 45.53716 | 5.10892 | 3395 ft | 225 kts | 33° |
| 2026-05-08 17:14 | 45.55190 | 5.11443 | 3151 ft | 221 kts | 356° |
| 2026-05-08 17:14 | 45.56691 | 5.11257 | 3062 ft | 211 kts | 354° |
| 2026-05-08 17:14 | 45.58102 | 5.11063 | 3014 ft | 195 kts | 354° |
| 2026-05-08 17:14 | 45.59390 | 5.10901 | 2973 ft | 177 kts | 354° |
| 2026-05-08 17:15 | 45.60578 | 5.10756 | 2848 ft | 167 kts | 354° |
| 2026-05-08 17:15 | 45.61722 | 5.10617 | 2648 ft | 163 kts | 354° |
| 2026-05-08 17:15 | 45.62852 | 5.10479 | 2442 ft | 163 kts | 354° |
| 2026-05-08 17:15 | 45.63979 | 5.10343 | 2236 ft | 161 kts | 354° |
| 2026-05-08 17:16 | 45.65089 | 5.10208 | 2024 ft | 162 kts | 353° |
| 2026-05-08 17:16 | 45.66208 | 5.10072 | 1804 ft | 162 kts | 356° |
| 2026-05-08 17:16 | 45.67320 | 5.09937 | 1596 ft | 159 kts | 354° |
| 2026-05-08 17:16 | 45.68414 | 5.09804 | 1392 ft | 157 kts | 355° |
| 2026-05-08 17:17 | 45.69510 | 5.09675 | 1167 ft | 157 kts | 356° |
| 2026-05-08 17:17 | 45.70616 | 5.09539 | 934 ft | 159 kts | 355° |
| 2026-05-08 17:17 | 45.71694 | 5.09408 | 797 ft | 142 kts | 356° |
| 2026-05-08 17:17 | 45.72365 | 5.09327 | 785 ft | 41 kts | 355° |
| 2026-05-08 17:18 | 45.72562 | 5.09198 | 782 ft | 30 kts | 328° |
| 2026-05-08 17:18 | 45.72673 | 5.09092 | 782 ft | 14 kts | 327° |
| 2026-05-08 17:18 | 45.72758 | 5.09057 | 781 ft | 12 kts | 346° |
| 2026-05-08 17:18 | 45.72838 | 5.09041 | 781 ft | 11 kts | 356° |
| 2026-05-08 17:19 | 45.72927 | 5.09031 | 780 ft | 14 kts | 352° |
| 2026-05-08 17:19 | 45.72964 | 5.08943 | 783 ft | 8 kts | 267° |
| 2026-05-08 17:19 | 45.72958 | 5.08848 | 786 ft | 11 kts | 265° |
| 2026-05-08 17:19 | 45.72950 | 5.08701 | 786 ft | 19 kts | 265° |
| 2026-05-08 17:20 | 45.72937 | 5.08504 | 783 ft | 14 kts | 266° |
| 2026-05-08 17:20 | 45.72898 | 5.08373 | 783 ft | 16 kts | 216° |
| 2026-05-08 17:20 | 45.72793 | 5.08357 | 784 ft | 16 kts | 175° |
| 2026-05-08 17:20 | 45.72681 | 5.08371 | 786 ft | 16 kts | 175° |
| 2026-05-08 17:21 | 45.72565 | 5.08385 | 787 ft | 17 kts | 175° |
| 2026-05-08 17:21 | 45.72447 | 5.08400 | 788 ft | 17 kts | 175° |
| 2026-05-08 17:21 | 45.72326 | 5.08413 | 790 ft | 18 kts | 175° |
| 2026-05-08 17:21 | 45.72261 | 5.08363 | 790 ft | 12 kts | 251° |
| 2026-05-08 17:22 | 45.72200 | 5.08314 | 791 ft | 11 kts | 177° |
| 2026-05-08 17:22 | 45.72121 | 5.08298 | 792 ft | 12 kts | 194° |
| 2026-05-08 17:22 | 45.72040 | 5.08257 | 793 ft | 13 kts | 195° |
| 2026-05-08 17:22 | 45.71952 | 5.08224 | 794 ft | 14 kts | 195° |
| 2026-05-08 17:23 | 45.71859 | 5.08187 | 795 ft | 14 kts | 195° |
| 2026-05-08 17:23 | 45.71780 | 5.08145 | 796 ft | 8 kts | 212° |
| 2026-05-08 17:23 | 45.71781 | 5.08095 | 796 ft | 5 kts | 295° |
| 2026-05-08 17:23 | 45.71803 | 5.08062 | 795 ft | 4 kts | 318° |